Aérodrome :
LOGIN :

S'inscrire | Disclaimer

   EN    FR    IT 

 










Légende :    VFR   VFR Marginal   IFR   IFR Intensif   IFR Très Intensif
Visi : 
Plafond : 
>= 8 km
>= 3000ft
5 à 8 km
1000 à 3000 ft
1500m à 5 km
500 à 1000 ft
800 à 1500m
200 à 500 ft
< 800m
< 200 ft
Symboles :   Orages  Brouillard  Fortes neiges  Fortes précipitations  Vent > 20 kt
SIGMETs :   Divers  Orages  Givrage  Turbulence  Onde Orograph.  Cendres Volcan.






- Altitude de l'aérodrome : 287 ft


LFRL - Lanveoc Poulmic

DERNIER METAR :
  • 261030Z AUTO 29014KT 9999 FEW040/// BKN076/// ///TCU 08/03 Q1015 TEMPO 4000 SHRA BECMG 29020G30KT

METARs EXPIRÉS :
  • 261000Z AUTO 30014KT 9999 FEW036 SCT064 BKN074 07/02 Q1015 TEMPO 4000 SHRA SCT020TCU BECMG 29020G30KT
  • 260930Z AUTO 31015KT 9999 FEW038 BKN062 07/02 Q1015 TEMPO 4000 SHRA SCT020TCU BECMG 29020G30KT
  • 260900Z AUTO 31015KT 9999 FEW031 SCT064 08/02 Q1015 TEMPO 4000 SHRA SCT020TCU BECMG 29020G30KT
  • 260830Z AUTO 30013KT 9999 SCT039/// BKN046/// BKN052/// ///TCU 07/02 Q1014 TEMPO 4000 SHRA SCT015CB SCT020TCU BECMG 29020G30KT
  • 260800Z AUTO 31014KT 9999 FEW035/// ///TCU 06/01 Q1014 TEMPO 30020G40KT 2000 SHRA SCT015CB SCT020TCU

TAF TAF LFRL
Valide du 26 à 06h jusqu'au 27 à 06h UTC


260500Z 2606/2706 29020G30KT 9999 SCT030
TEMPO 2606/2610 30020G40KT 2000 SHRA SCT015CB SCT020TCU
PROB30
TEMPO 2610/2615 4000 SHRA SCT020TCU
BECMG 2615/2618 24005KT
BECMG 2618/2622 18015G25KT 3000 RA BKN004 OVC009
TEMPO 2700/2706 23020G35KT 1400 RADZ OVC002



MET'MAP, la Météo Aéronautique d'un coup d'oeil ! - Copyright ORBIFLY Décembre 2007 - Disclaimer

ORBIFLY MET'MAP TEAM :

Programmation & Développement : Alexandra Zaïnal
Sur une idée originale de : Baudouin d'Aumeries
Assistance à la programmation : Marc-Olivier Méhu
Soutien technique & logistique : Manuel Goepfert

Contact : metmap@orbifly.com




SOURCES & CREDITS :

   NOAA